createdAt,value
2019-01-11T00:01:14.629Z,11.30
2019-01-11T00:03:45.772Z,9.70
2019-01-11T00:06:16.873Z,10.17
2019-01-11T00:08:47.869Z,9.60
2019-01-11T00:11:19.245Z,9.93
2019-01-11T00:13:50.249Z,10.30
2019-01-11T00:16:21.345Z,10.30
2019-01-11T00:18:52.346Z,10.33
2019-01-11T00:21:23.529Z,11.30
2019-01-11T00:23:54.512Z,10.50
2019-01-11T00:26:25.614Z,11.23
2019-01-11T00:28:56.609Z,11.23
2019-01-11T00:31:27.805Z,9.50
2019-01-11T00:33:58.886Z,11.40
2019-01-11T00:36:29.981Z,9.63
2019-01-11T00:39:00.918Z,10.43
2019-01-11T00:41:33.501Z,9.80
2019-01-11T00:44:04.746Z,10.73
2019-01-11T00:46:35.673Z,10.00
2019-01-11T00:49:13.318Z,11.57
2019-01-11T00:51:39.737Z,11.87
2019-01-11T00:54:10.901Z,10.00
2019-01-11T00:56:44.572Z,10.43
2019-01-11T00:59:15.641Z,9.97
2019-01-11T01:01:46.755Z,11.03
2019-01-11T01:04:17.737Z,10.00
2019-01-11T01:06:49.294Z,8.70
2019-01-11T01:09:20.431Z,10.17
2019-01-11T01:11:51.525Z,9.40
2019-01-11T01:14:22.617Z,10.43
2019-01-11T01:16:53.805Z,9.03
2019-01-11T01:19:24.802Z,13.23
2019-01-11T01:21:55.970Z,12.60
2019-01-11T05:10:43.999Z,10.50
2019-01-11T05:13:32.599Z,9.30
2019-01-11T05:16:03.682Z,10.20
2019-01-11T05:18:34.694Z,9.20
2019-01-11T05:21:05.563Z,9.60
2019-01-11T05:23:36.658Z,11.37
2019-01-11T05:26:07.675Z,10.27
2019-01-11T05:28:38.651Z,10.70
2019-01-11T05:31:09.642Z,10.40
2019-01-11T05:33:40.629Z,10.27
2019-01-11T05:36:11.508Z,10.63
2019-01-11T05:38:42.614Z,10.60
2019-01-11T05:41:13.446Z,10.80
2019-01-11T05:43:45.138Z,11.10
2019-01-11T05:46:16.142Z,11.13
2019-01-11T05:48:47.187Z,12.27
2019-01-11T05:51:18.250Z,11.33
2019-01-11T05:53:49.263Z,11.10
2019-01-11T05:56:20.825Z,13.83
2019-01-11T05:59:08.189Z,12.03
2019-01-11T06:01:39.281Z,12.20
2019-01-11T06:04:28.046Z,13.40
2019-01-11T06:07:20.874Z,12.23
2019-01-11T06:09:51.774Z,11.60
2019-01-11T06:12:23.195Z,13.03
2019-01-11T06:14:54.254Z,13.20
2019-01-11T06:17:25.263Z,14.73
2019-01-11T06:19:56.714Z,13.03
2019-01-11T06:22:27.753Z,12.47
2019-01-11T06:24:58.774Z,12.53
2019-01-11T06:27:29.742Z,13.53
2019-01-11T06:30:00.797Z,12.73
2019-01-11T06:32:31.714Z,12.87
2019-01-11T06:35:02.823Z,12.93
2019-01-11T06:37:33.790Z,13.40
2019-01-11T06:40:05.473Z,12.60
2019-01-11T06:42:36.489Z,13.50
2019-01-11T06:45:08.913Z,13.50
2019-01-11T06:47:40.006Z,14.00
2019-01-11T06:50:12.941Z,13.27
2019-01-11T06:52:43.932Z,12.50
2019-01-11T06:55:15.014Z,13.10
2019-01-11T06:57:46.128Z,14.60
2019-01-11T07:00:17.782Z,14.27
2019-01-11T07:02:48.813Z,12.47
2019-01-11T07:05:19.858Z,13.03
2019-01-11T07:07:50.690Z,12.80
2019-01-11T07:10:21.886Z,12.47
2019-01-11T07:12:52.800Z,12.77
2019-01-11T07:15:23.821Z,15.00
2019-01-11T07:17:55.254Z,12.70
2019-01-11T07:20:26.150Z,12.30
2019-01-11T07:22:57.138Z,13.60
2019-01-11T07:25:28.197Z,12.13
2019-01-11T07:28:01.787Z,12.60
2019-01-11T07:30:54.740Z,11.90
2019-01-11T07:33:25.677Z,9.37
2019-01-11T07:36:07.974Z,8.00
2019-01-11T07:38:41.070Z,6.47
2019-01-11T07:41:12.131Z,5.90
2019-01-11T07:43:42.837Z,5.50
2019-01-11T07:46:14.113Z,6.33
2019-01-11T07:48:45.238Z,5.80
2019-01-11T07:51:16.321Z,5.70
2019-01-11T07:53:47.235Z,6.10
2019-01-11T07:56:18.210Z,6.03
2019-01-11T07:58:49.298Z,4.43
2019-01-11T08:01:20.175Z,5.00
2019-01-11T08:03:51.178Z,4.83
2019-01-11T08:06:22.122Z,4.73
2019-01-11T08:08:53.804Z,6.30
2019-01-11T08:11:25.135Z,5.80
2019-01-11T08:13:56.022Z,5.43
2019-01-11T08:16:26.926Z,5.73
2019-01-11T08:18:58.040Z,5.33
2019-01-11T08:21:29.026Z,5.77
2019-01-11T08:23:59.907Z,8.00
2019-01-11T08:26:30.698Z,7.83
2019-01-11T08:29:01.673Z,9.00
2019-01-11T08:31:34.861Z,7.47
2019-01-11T08:34:05.407Z,7.80
2019-01-11T08:36:36.498Z,7.23
2019-01-11T08:39:09.436Z,8.07
2019-01-11T08:41:41.423Z,7.43
2019-01-11T08:44:12.113Z,6.70
2019-01-11T08:46:43.323Z,7.60
2019-01-11T08:49:15.330Z,6.83
2019-01-11T08:51:46.289Z,7.63
2019-01-11T08:54:17.107Z,8.13
2019-01-11T08:56:48.103Z,6.33
2019-01-11T08:59:19.093Z,6.80
2019-01-11T09:01:50.071Z,7.93
2019-01-11T09:04:20.957Z,8.20
2019-01-11T09:06:51.845Z,8.07
2019-01-11T09:09:22.734Z,8.10
2019-01-11T09:11:53.723Z,8.70
2019-01-11T09:14:42.481Z,10.20
2019-01-11T09:17:13.514Z,8.10
2019-01-11T09:19:44.626Z,9.20
2019-01-11T09:22:16.740Z,8.60
2019-01-11T09:24:47.626Z,8.60
2019-01-11T09:27:18.613Z,9.33
2019-01-11T09:29:49.802Z,10.20
2019-01-11T09:32:20.794Z,10.40
2019-01-11T09:34:51.799Z,9.17
2019-01-11T09:37:22.776Z,10.57
2019-01-11T09:39:53.866Z,11.00
2019-01-11T09:42:24.879Z,10.43
2019-01-11T09:44:55.862Z,11.40
2019-01-11T09:47:26.949Z,10.97
2019-01-11T09:49:57.933Z,14.30
2019-01-11T09:52:28.823Z,13.60
2019-01-11T09:54:59.917Z,12.23
2019-01-11T09:57:30.787Z,10.47
2019-01-11T10:00:01.810Z,11.97
2019-01-11T10:02:36.915Z,15.37
2019-01-11T10:05:09.611Z,14.63
2019-01-11T10:07:40.595Z,15.67
2019-01-11T10:10:13.834Z,15.27
2019-01-11T10:12:44.826Z,19.67
2019-01-11T10:15:16.227Z,21.00
2019-01-11T10:17:49.096Z,18.73
2019-01-11T10:20:20.254Z,15.90
2019-01-11T10:22:51.145Z,20.00
2019-01-11T10:25:22.234Z,20.13
2019-01-11T10:27:53.226Z,16.90
2019-01-11T10:30:24.225Z,15.57
2019-01-11T10:32:54.988Z,16.00
2019-01-11T10:35:26.086Z,17.13
2019-01-11T10:37:57.081Z,13.53
2019-01-11T10:40:28.898Z,15.60
2019-01-11T10:42:59.873Z,15.23
2019-01-11T10:45:30.982Z,14.30
2019-01-11T10:48:01.958Z,14.77
2019-01-11T10:50:32.945Z,14.30
2019-01-11T10:53:04.042Z,14.30
2019-01-11T10:55:35.046Z,13.87
2019-01-11T10:58:06.337Z,13.90
2019-01-11T11:00:37.431Z,14.07
2019-01-11T11:03:08.615Z,13.47
2019-01-11T11:05:39.709Z,14.00
2019-01-11T11:08:11.393Z,15.20
2019-01-11T11:10:42.712Z,13.77
2019-01-11T11:13:13.593Z,13.17
2019-01-11T11:15:46.042Z,15.53
2019-01-11T11:18:17.305Z,12.80
2019-01-11T11:20:48.224Z,14.10
2019-01-11T11:23:19.291Z,12.17
2019-01-11T11:25:50.393Z,14.17
2019-01-11T11:28:21.281Z,13.53
2019-01-11T11:30:52.279Z,12.77
2019-01-11T11:33:23.421Z,15.53
2019-01-11T11:35:54.355Z,14.17
2019-01-11T11:38:25.419Z,12.40
2019-01-11T11:40:56.334Z,14.27
2019-01-11T11:43:27.300Z,14.00
2019-01-11T11:45:58.217Z,13.40
2019-01-11T11:48:30.649Z,14.63
2019-01-11T11:51:01.521Z,12.43
2019-01-11T11:53:32.693Z,14.53
2019-01-11T11:56:03.955Z,11.50
2019-01-11T11:58:35.106Z,13.73
2019-01-11T12:01:07.507Z,12.70
2019-01-11T12:03:38.634Z,13.10
2019-01-11T12:06:09.727Z,13.60
2019-01-11T12:08:40.801Z,12.47
2019-01-11T12:11:11.790Z,13.77
2019-01-11T12:13:42.887Z,13.70
2019-01-11T12:16:13.985Z,12.63
2019-01-11T12:18:44.949Z,13.13
2019-01-11T12:21:16.069Z,14.00
2019-01-11T12:23:47.150Z,12.93
2019-01-11T12:26:18.259Z,12.27
2019-01-11T12:28:49.130Z,13.30
2019-01-11T12:31:20.122Z,12.90
2019-01-11T12:33:51.241Z,12.80
2019-01-11T12:36:22.313Z,11.50
2019-01-11T12:38:53.187Z,12.53
2019-01-11T12:41:24.081Z,12.90
2019-01-11T12:43:55.198Z,12.73
2019-01-11T12:46:26.174Z,11.13
2019-01-11T12:48:57.183Z,12.77
2019-01-11T12:51:28.154Z,11.73
2019-01-11T12:53:59.030Z,11.50
2019-01-11T12:56:30.022Z,12.17
2019-01-11T12:59:01.298Z,12.23
2019-01-11T13:01:32.318Z,13.27
2019-01-11T13:04:03.293Z,13.20
2019-01-11T13:06:34.194Z,14.80
2019-01-11T13:09:07.683Z,16.57
2019-01-11T13:11:38.533Z,19.70
2019-01-11T13:14:10.653Z,21.20
2019-01-11T13:16:41.734Z,17.90
2019-01-11T13:19:12.609Z,13.27
2019-01-11T13:21:43.514Z,13.60
2019-01-11T13:24:14.494Z,13.73
2019-01-11T13:26:45.481Z,15.73
2019-01-11T13:29:16.466Z,17.33
2019-01-11T13:31:47.574Z,15.63
2019-01-11T13:34:18.671Z,13.97
2019-01-11T13:36:53.891Z,13.60
2019-01-11T13:39:22.182Z,15.07
2019-01-11T13:41:53.291Z,12.93
2019-01-11T13:44:24.485Z,14.80
2019-01-11T13:46:55.457Z,14.00
2019-01-11T13:49:27.538Z,12.87
2019-01-11T13:51:58.458Z,14.70
2019-01-11T13:54:29.443Z,14.67
2019-01-11T13:57:00.546Z,14.27
2019-01-11T13:59:31.629Z,14.60
2019-01-11T14:02:02.617Z,14.07
2019-01-11T14:04:33.494Z,12.57
2019-01-11T14:07:04.690Z,14.07
2019-01-11T14:09:35.797Z,13.13
2019-01-11T14:12:06.895Z,12.07
2019-01-11T14:14:37.663Z,13.73
2019-01-11T14:17:08.918Z,12.73
2019-01-11T14:19:41.058Z,13.07
2019-01-11T14:22:13.795Z,12.80
2019-01-11T14:24:45.090Z,13.00
2019-01-11T14:27:16.112Z,13.97
2019-01-11T14:29:47.092Z,12.83
2019-01-11T14:32:18.077Z,15.33
2019-01-11T14:34:48.970Z,14.50
2019-01-11T14:37:20.070Z,10.90
2019-01-11T14:39:51.437Z,15.30
2019-01-11T14:42:22.251Z,12.83
2019-01-11T14:44:53.124Z,13.50
2019-01-11T14:47:24.019Z,11.80
2019-01-11T14:49:55.623Z,11.63
2019-01-11T14:52:26.614Z,13.23
2019-01-11T14:54:57.481Z,11.00
2019-01-11T14:57:28.490Z,12.27
2019-01-11T14:59:59.485Z,12.77
2019-01-11T15:02:30.480Z,11.73
2019-01-11T15:05:01.529Z,12.70
2019-01-11T15:07:32.546Z,11.57
2019-01-11T15:10:03.438Z,9.90
2019-01-11T15:12:34.449Z,10.60
2019-01-11T15:15:05.924Z,12.40
2019-01-11T15:17:36.821Z,11.20
2019-01-11T15:20:09.934Z,10.73
2019-01-11T15:22:40.754Z,11.60
2019-01-11T15:25:12.321Z,12.23
2019-01-11T15:27:43.229Z,12.20
2019-01-11T15:30:20.946Z,12.70
2019-01-11T15:32:52.034Z,12.40
2019-01-11T15:35:23.055Z,11.17
2019-01-11T15:37:54.310Z,11.27
2019-01-11T15:40:36.458Z,13.37
2019-01-11T15:43:05.366Z,12.00
2019-01-11T15:45:36.318Z,11.37
2019-01-11T15:48:07.173Z,11.77
2019-01-11T15:50:55.941Z,11.63
2019-01-11T15:53:29.862Z,11.70
2019-01-11T15:56:02.009Z,12.50
2019-01-11T15:58:33.013Z,12.17
2019-01-11T16:01:04.008Z,11.97
2019-01-11T16:03:35.023Z,10.90
2019-01-11T16:06:41.008Z,11.83
2019-01-11T16:10:03.914Z,11.57
2019-01-11T16:13:10.386Z,12.33
2019-01-11T16:16:18.389Z,11.73
2019-01-11T16:18:49.686Z,11.83
2019-01-11T16:21:20.575Z,11.60
2019-01-11T16:23:51.814Z,10.97
2019-01-11T16:26:22.767Z,11.07
2019-01-11T16:28:53.850Z,12.77
2019-01-11T16:31:24.738Z,12.00
2019-01-11T16:33:55.794Z,11.87
2019-01-11T16:36:26.825Z,12.20
2019-01-11T16:38:57.985Z,11.30
2019-01-11T16:41:29.012Z,13.00
2019-01-11T16:43:59.890Z,12.67
2019-01-11T16:46:30.985Z,12.63
2019-01-11T16:49:03.845Z,11.50
2019-01-11T16:51:35.560Z,11.90
2019-01-11T16:54:06.465Z,13.60
2019-01-11T16:56:37.506Z,14.20
2019-01-11T16:59:08.493Z,18.00
2019-01-11T17:01:39.380Z,12.27
2019-01-11T17:04:10.219Z,12.23
2019-01-11T17:06:41.187Z,13.57
2019-01-11T17:09:23.426Z,11.50
2019-01-11T17:12:03.346Z,10.40
2019-01-11T17:14:34.374Z,12.73
2019-01-11T17:17:05.506Z,10.90
2019-01-11T17:19:36.674Z,10.73
2019-01-11T17:22:31.272Z,10.93
2019-01-11T17:25:01.555Z,8.83
2019-01-11T17:27:32.534Z,7.80
2019-01-11T17:30:11.107Z,8.90
2019-01-11T17:32:42.236Z,9.10
2019-01-11T17:35:13.402Z,10.87
2019-01-11T17:37:44.386Z,11.10
2019-01-11T17:40:16.101Z,10.60
2019-01-11T17:42:46.990Z,8.70
2019-01-11T17:45:18.077Z,12.23
2019-01-11T17:47:49.062Z,13.70
2019-01-11T17:50:20.366Z,11.40
2019-01-11T17:52:51.458Z,12.70
2019-01-11T17:55:22.454Z,10.30
2019-01-11T17:57:53.417Z,9.40
2019-01-11T18:00:24.618Z,8.70
2019-01-11T18:02:55.798Z,8.97
2019-01-11T18:05:26.805Z,8.43
2019-01-11T18:07:59.445Z,9.80
2019-01-11T18:10:30.522Z,8.77
2019-01-11T18:13:02.618Z,8.60
2019-01-11T18:15:33.655Z,7.83
2019-01-11T18:18:05.018Z,8.30
2019-01-11T18:20:36.146Z,9.60
2019-01-11T18:23:07.934Z,9.17
2019-01-11T18:25:38.918Z,9.97
2019-01-11T18:28:10.076Z,9.70
2019-01-11T18:30:41.135Z,11.50
2019-01-11T18:33:12.173Z,9.73
2019-01-11T18:35:43.094Z,11.67
2019-01-11T18:38:14.367Z,9.90
2019-01-11T18:40:45.491Z,10.57
2019-01-11T18:43:16.862Z,11.10
2019-01-11T18:45:47.787Z,8.90
2019-01-11T18:48:18.743Z,8.93
2019-01-11T18:50:49.752Z,9.67
2019-01-11T18:53:22.682Z,10.50
2019-01-11T18:55:53.782Z,9.73
2019-01-11T18:58:24.842Z,8.73
2019-01-11T19:00:55.862Z,10.27
2019-01-11T19:03:27.017Z,10.50
2019-01-11T19:05:58.045Z,11.60
2019-01-11T19:08:29.241Z,10.30
2019-01-11T19:11:02.158Z,10.07
2019-01-11T19:13:33.162Z,9.17
2019-01-11T19:16:04.158Z,9.37
2019-01-11T19:18:35.142Z,8.90
2019-01-11T19:21:08.597Z,9.97
2019-01-11T19:23:40.265Z,10.63
2019-01-11T19:26:11.073Z,16.00
2019-01-11T19:28:43.087Z,15.17
2019-01-11T19:31:14.191Z,23.67
2019-01-11T19:33:45.194Z,23.03
2019-01-11T19:36:16.161Z,17.50
2019-01-11T19:38:47.143Z,14.70
2019-01-11T19:41:18.054Z,13.40
2019-01-11T19:43:49.038Z,13.07
2019-01-11T19:46:20.129Z,12.30
2019-01-11T19:48:51.412Z,11.43
2019-01-11T19:51:22.324Z,12.07
2019-01-11T19:53:54.196Z,13.23
2019-01-11T19:56:25.120Z,11.77
2019-01-11T19:58:56.218Z,10.63
2019-01-11T20:01:27.380Z,12.90
2019-01-11T20:03:58.462Z,12.03
2019-01-11T20:06:29.569Z,11.60
2019-01-11T20:09:00.697Z,13.07
2019-01-11T20:11:33.195Z,12.90
2019-01-11T20:14:04.193Z,14.47
2019-01-11T20:16:35.185Z,14.23
2019-01-11T20:19:06.450Z,14.93
2019-01-11T20:21:38.394Z,14.00
2019-01-11T20:24:10.267Z,16.90
2019-01-11T20:26:42.110Z,17.57
2019-01-11T20:29:13.806Z,21.47
2019-01-11T20:31:44.810Z,32.87
2019-01-11T20:34:16.817Z,19.57
2019-01-11T20:36:56.926Z,16.00
2019-01-11T20:39:28.208Z,11.20
2019-01-11T20:41:59.314Z,12.90
2019-01-11T20:44:30.770Z,12.93
2019-01-11T20:47:01.697Z,13.03
2019-01-11T20:49:32.569Z,16.13
2019-01-11T20:52:03.693Z,15.87
2019-01-11T20:54:34.846Z,14.87
2019-01-11T20:57:06.060Z,16.60
2019-01-11T20:59:37.138Z,16.90
2019-01-11T21:02:08.158Z,15.60
2019-01-11T21:04:39.232Z,14.53
2019-01-11T21:07:10.126Z,13.43
2019-01-11T21:09:41.018Z,15.73
2019-01-11T21:12:11.998Z,15.87
2019-01-11T21:14:43.074Z,15.67
2019-01-11T21:17:14.099Z,11.97
2019-01-11T21:19:45.086Z,13.80
2019-01-11T21:22:16.270Z,11.80
2019-01-11T21:24:47.366Z,12.80
2019-01-11T21:27:18.470Z,11.80
2019-01-11T21:29:49.347Z,11.03
2019-01-11T21:32:20.226Z,12.37
2019-01-11T21:34:51.224Z,15.77
2019-01-11T21:37:22.327Z,13.20
2019-01-11T21:39:53.485Z,13.57
2019-01-11T21:42:26.135Z,12.33
2019-01-11T21:44:57.093Z,13.70
2019-01-11T21:47:27.918Z,12.80
2019-01-11T21:49:58.906Z,12.37
2019-01-11T21:52:29.927Z,13.30
2019-01-11T21:55:02.519Z,13.43
2019-01-11T21:57:33.518Z,11.13
2019-01-11T22:00:06.819Z,10.93
2019-01-11T22:02:37.859Z,11.80
2019-01-11T22:05:09.022Z,12.30
2019-01-11T22:07:40.138Z,12.87
2019-01-11T22:10:12.842Z,11.40
2019-01-11T22:12:43.967Z,11.60
2019-01-11T22:15:16.266Z,11.53
2019-01-11T22:17:47.197Z,11.60
2019-01-11T22:20:18.476Z,13.60
2019-01-11T22:22:49.451Z,11.80
2019-01-11T22:25:20.340Z,10.90
2019-01-11T22:27:51.438Z,9.67
2019-01-11T22:30:29.952Z,11.33
2019-01-11T22:32:55.974Z,9.40
2019-01-11T22:35:27.034Z,12.00
2019-01-11T22:37:58.217Z,11.20
2019-01-11T22:40:29.442Z,9.90
2019-01-11T22:43:00.962Z,11.40
2019-01-11T22:45:31.940Z,10.43
2019-01-11T22:48:02.840Z,11.33
2019-01-11T22:50:33.901Z,10.13
2019-01-11T22:53:05.291Z,11.83
2019-01-11T22:55:36.339Z,12.50
2019-01-11T22:58:08.891Z,10.67
2019-01-11T23:01:07.690Z,12.10
2019-01-11T23:03:42.149Z,11.43
2019-01-11T23:06:26.122Z,10.47
2019-01-11T23:08:57.246Z,10.80
2019-01-11T23:12:13.487Z,12.93
2019-01-11T23:14:44.493Z,10.93
2019-01-11T23:17:33.211Z,10.17
2019-01-11T23:20:04.386Z,11.50
2019-01-11T23:22:35.369Z,10.80
2019-01-11T23:25:06.666Z,13.00
2019-01-11T23:27:37.934Z,10.20
2019-01-11T23:30:12.546Z,10.43
2019-01-11T23:32:43.791Z,10.57
2019-01-11T23:35:14.835Z,11.87
2019-01-11T23:37:45.707Z,9.50
2019-01-11T23:40:17.630Z,9.87
2019-01-11T23:42:48.670Z,10.83
2019-01-11T23:45:19.406Z,11.93
2019-01-11T23:47:50.381Z,10.17
2019-01-11T23:50:21.282Z,10.13
2019-01-11T23:52:52.451Z,10.90
2019-01-11T23:55:23.469Z,9.83
2019-01-11T23:57:54.342Z,11.17
